createdAt,value
2023-01-23T00:02:07.356Z,1.80
2023-01-23T00:05:11.638Z,1.80
2023-01-23T00:08:14.999Z,1.90
2023-01-23T00:11:22.141Z,1.80
2023-01-23T00:14:25.638Z,1.80
2023-01-23T00:17:29.625Z,1.80
2023-01-23T00:20:33.063Z,1.90
2023-01-23T00:23:37.060Z,1.90
2023-01-23T00:26:41.809Z,1.90
2023-01-23T00:29:45.348Z,1.90
2023-01-23T00:32:48.666Z,1.90
2023-01-23T00:35:55.863Z,1.90
2023-01-23T00:38:59.176Z,1.90
2023-01-23T00:42:04.101Z,1.90
2023-01-23T00:45:08.942Z,1.90
2023-01-23T00:48:12.307Z,1.90
2023-01-23T00:51:16.041Z,2.00
2023-01-23T00:54:21.284Z,1.90
2023-01-23T00:57:26.090Z,1.80
2023-01-23T01:00:30.045Z,1.90
2023-01-23T01:03:33.702Z,1.90
2023-01-23T01:06:37.897Z,1.90
2023-01-23T01:09:41.301Z,1.90
2023-01-23T01:12:47.972Z,1.90
2023-01-23T01:15:52.853Z,1.90
2023-01-23T01:18:56.332Z,1.90
2023-01-23T01:21:59.636Z,2.00
2023-01-23T01:25:03.012Z,2.00
2023-01-23T01:28:08.105Z,2.00
2023-01-23T01:31:13.580Z,2.00
2023-01-23T01:34:16.972Z,1.90
2023-01-23T01:37:22.631Z,1.90
2023-01-23T01:40:28.944Z,1.90
2023-01-23T01:43:35.212Z,1.90
2023-01-23T01:46:38.754Z,1.90
2023-01-23T01:49:42.197Z,1.90
2023-01-23T01:52:45.501Z,1.90
2023-01-23T01:55:49.405Z,1.90
2023-01-23T01:58:55.270Z,1.90
2023-01-23T02:02:05.111Z,1.90
2023-01-23T02:05:12.748Z,1.90
2023-01-23T02:08:22.614Z,1.90
2023-01-23T02:11:26.988Z,1.90
2023-01-23T02:14:31.944Z,1.90
2023-01-23T02:17:38.171Z,1.90
2023-01-23T02:20:41.754Z,1.90
2023-01-23T02:23:56.540Z,1.90
2023-01-23T02:27:04.445Z,1.90
2023-01-23T02:30:09.948Z,1.90
2023-01-23T02:33:44.396Z,1.90
2023-01-23T02:36:49.643Z,1.90
2023-01-23T02:39:54.070Z,1.90
2023-01-23T02:43:00.093Z,1.90
2023-01-23T02:46:04.015Z,1.90
2023-01-23T02:49:07.311Z,1.90
2023-01-23T02:52:10.864Z,1.80
2023-01-23T02:55:14.054Z,1.80
2023-01-23T02:58:36.482Z,1.90
2023-01-23T03:01:39.811Z,1.80
2023-01-23T03:04:43.308Z,1.80
2023-01-23T03:07:46.674Z,1.80
2023-01-23T03:10:49.981Z,1.80
2023-01-23T03:13:55.313Z,1.80
2023-01-23T03:16:58.676Z,1.80
2023-01-23T03:20:07.466Z,1.80
2023-01-23T03:23:10.909Z,1.80
2023-01-23T03:26:14.398Z,1.80
2023-01-23T03:29:38.836Z,1.80
2023-01-23T03:32:42.379Z,1.80
2023-01-23T03:35:45.844Z,1.70
2023-01-23T03:39:03.389Z,1.70
2023-01-23T03:42:07.454Z,1.70
2023-01-23T03:45:12.278Z,1.70
2023-01-23T03:48:15.552Z,1.70
2023-01-23T03:51:20.963Z,1.70
2023-01-23T03:54:25.506Z,1.70
2023-01-23T03:57:29.766Z,1.70
2023-01-23T04:00:45.912Z,1.70
2023-01-23T04:03:50.654Z,1.70
2023-01-23T04:06:54.060Z,1.70
2023-01-23T04:09:57.981Z,1.60
2023-01-23T04:13:01.941Z,1.70
2023-01-23T04:16:08.578Z,1.70
2023-01-23T04:19:12.443Z,1.70
2023-01-23T04:22:15.840Z,1.70
2023-01-23T04:25:23.151Z,1.70
2023-01-23T04:28:26.515Z,1.60
2023-01-23T04:31:33.488Z,1.70
2023-01-23T04:34:37.216Z,1.70
2023-01-23T04:37:40.902Z,1.70
2023-01-23T04:40:44.891Z,1.60
2023-01-23T04:43:48.671Z,1.60
2023-01-23T04:46:55.042Z,1.70
2023-01-23T04:49:58.671Z,1.60
2023-01-23T04:53:02.450Z,1.60
2023-01-23T04:56:06.643Z,1.70
2023-01-23T04:59:10.417Z,1.60
2023-01-23T05:02:15.408Z,1.70
2023-01-23T05:05:21.241Z,1.70
2023-01-23T05:08:26.983Z,1.70
2023-01-23T05:11:49.892Z,1.80
2023-01-23T05:14:54.219Z,1.70
2023-01-23T05:17:59.829Z,1.70
2023-01-23T05:21:03.219Z,1.70
2023-01-23T05:24:07.899Z,1.70
2023-01-23T05:27:11.369Z,1.70
2023-01-23T05:30:18.837Z,1.70
2023-01-23T05:33:24.431Z,1.70
2023-01-23T05:36:27.778Z,1.70
2023-01-23T05:39:33.759Z,1.70
2023-01-23T05:42:38.936Z,1.90
2023-01-23T05:46:07.532Z,1.70
2023-01-23T05:49:28.261Z,1.70
2023-01-23T05:52:34.694Z,1.80
2023-01-23T05:55:39.255Z,1.70
2023-01-23T05:58:44.102Z,1.70
2023-01-23T06:02:07.606Z,1.70
2023-01-23T06:05:31.295Z,1.70
2023-01-23T06:08:38.859Z,1.70
2023-01-23T06:11:43.518Z,1.80
2023-01-23T06:14:48.038Z,1.70
2023-01-23T06:17:51.374Z,1.70
2023-01-23T06:21:00.981Z,1.70
2023-01-23T06:24:05.181Z,1.70
2023-01-23T06:27:08.888Z,1.70
2023-01-23T06:30:14.719Z,1.70
2023-01-23T06:33:26.230Z,1.70
2023-01-23T06:36:30.972Z,1.70
2023-01-23T06:39:35.282Z,1.70
2023-01-23T06:42:41.608Z,1.80
2023-01-23T06:45:45.711Z,1.70
2023-01-23T06:48:49.015Z,1.70
2023-01-23T06:51:53.742Z,1.70
2023-01-23T06:54:58.432Z,1.70
2023-01-23T06:58:01.870Z,1.80
2023-01-23T07:01:10.537Z,1.80
2023-01-23T07:04:49.355Z,1.80
2023-01-23T07:07:54.270Z,1.80
2023-01-23T07:10:57.766Z,1.80
2023-01-23T07:14:01.067Z,1.80
2023-01-23T07:17:05.398Z,1.90
2023-01-23T07:20:10.110Z,1.90
2023-01-23T07:23:19.914Z,1.90
2023-01-23T07:26:23.199Z,1.90
2023-01-23T07:29:26.493Z,1.90
2023-01-23T07:32:29.915Z,1.90
2023-01-23T07:35:33.598Z,2.00
2023-01-23T07:38:39.506Z,2.00
2023-01-23T07:41:44.302Z,2.00
2023-01-23T07:44:50.345Z,2.10
2023-01-23T07:47:53.719Z,2.10
2023-01-23T07:50:57.666Z,2.00
2023-01-23T07:54:02.481Z,2.00
2023-01-23T07:57:05.777Z,2.00
2023-01-23T08:00:10.932Z,2.00
2023-01-23T08:03:17.288Z,2.00
2023-01-23T08:06:20.946Z,2.00
2023-01-23T08:09:25.873Z,2.00
2023-01-23T08:12:30.328Z,2.10
2023-01-23T08:15:34.827Z,2.00
2023-01-23T08:18:39.090Z,2.60
2023-01-23T08:21:43.337Z,2.20
2023-01-23T08:24:48.529Z,2.10
2023-01-23T08:27:52.122Z,2.20
2023-01-23T08:30:55.825Z,2.20
2023-01-23T08:33:59.378Z,2.50
2023-01-23T08:37:03.516Z,2.50
2023-01-23T08:40:10.466Z,2.40
2023-01-23T08:43:14.913Z,1.40
2023-01-23T08:46:18.597Z,2.70
2023-01-23T08:49:22.009Z,2.60
2023-01-23T08:52:28.254Z,2.70
2023-01-23T08:55:36.038Z,2.60
2023-01-23T08:58:40.180Z,2.60
2023-01-23T09:01:43.574Z,2.70
2023-01-23T09:04:46.948Z,2.80
2023-01-23T09:07:50.245Z,2.60
2023-01-23T09:10:56.564Z,2.60
2023-01-23T09:14:00.254Z,2.60
2023-01-23T09:17:03.441Z,2.60
2023-01-23T09:20:08.292Z,2.70
2023-01-23T09:23:11.732Z,2.70
2023-01-23T09:26:19.599Z,2.70
2023-01-23T09:29:23.459Z,2.70
2023-01-23T09:32:26.825Z,2.70
2023-01-23T09:35:30.090Z,2.70
2023-01-23T09:38:34.234Z,2.80
2023-01-23T09:41:40.788Z,2.80
2023-01-23T09:44:46.569Z,2.80
2023-01-23T09:47:55.191Z,2.80
2023-01-23T09:51:02.991Z,2.80
2023-01-23T09:54:15.563Z,2.80
2023-01-23T09:57:25.445Z,2.90
2023-01-23T10:00:31.840Z,2.70
2023-01-23T10:03:36.199Z,2.90
2023-01-23T10:07:04.848Z,3.00
2023-01-23T10:10:32.364Z,3.00
2023-01-23T10:13:55.722Z,3.10
2023-01-23T10:17:08.634Z,3.00
2023-01-23T10:20:30.417Z,3.00
2023-01-23T10:23:56.594Z,3.00
2023-01-23T10:27:10.754Z,3.10
2023-01-23T10:30:27.232Z,3.10
2023-01-23T10:33:38.702Z,3.00
2023-01-23T10:36:54.724Z,3.10
2023-01-23T10:40:03.559Z,3.10
2023-01-23T10:43:13.723Z,3.10
2023-01-23T10:46:20.218Z,3.20
2023-01-23T10:49:32.526Z,3.20
2023-01-23T10:52:38.881Z,3.20
2023-01-23T10:55:46.980Z,3.30
2023-01-23T10:58:50.452Z,3.30
2023-01-23T11:02:01.158Z,3.30
2023-01-23T11:05:31.061Z,3.30
2023-01-23T11:08:37.696Z,3.30
2023-01-23T11:11:41.571Z,3.30
2023-01-23T11:14:44.879Z,3.30
2023-01-23T11:17:50.358Z,3.20
2023-01-23T11:20:56.445Z,3.20
2023-01-23T11:24:10.537Z,3.20
2023-01-23T11:27:20.434Z,3.20
2023-01-23T11:30:37.788Z,3.20
2023-01-23T11:33:48.429Z,3.20
2023-01-23T11:37:01.107Z,3.20
2023-01-23T11:40:08.351Z,3.20
2023-01-23T11:43:15.771Z,3.20
2023-01-23T11:46:41.325Z,3.20
2023-01-23T11:50:04.770Z,3.20
2023-01-23T11:53:22.501Z,3.20
2023-01-23T11:56:58.340Z,3.20
2023-01-23T12:00:07.359Z,3.20
2023-01-23T12:03:35.927Z,3.20
2023-01-23T12:06:56.350Z,3.20
2023-01-23T12:10:04.364Z,3.20
2023-01-23T12:13:28.127Z,3.30
2023-01-23T12:16:48.386Z,3.30
2023-01-23T12:20:26.116Z,3.30
2023-01-23T12:23:50.372Z,3.20
2023-01-23T12:27:03.567Z,3.20
2023-01-23T12:30:39.006Z,3.20
2023-01-23T12:34:05.535Z,3.20
2023-01-23T12:37:30.821Z,3.20
2023-01-23T12:40:41.615Z,3.10
2023-01-23T12:43:53.039Z,3.20
2023-01-23T12:47:02.148Z,3.20
2023-01-23T12:50:15.486Z,3.20
2023-01-23T12:53:20.162Z,3.20
2023-01-23T12:56:29.948Z,3.20
2023-01-23T12:59:42.984Z,3.10
2023-01-23T13:02:54.027Z,3.20
2023-01-23T13:06:09.593Z,3.20
2023-01-23T13:09:23.244Z,3.20
2023-01-23T13:12:29.699Z,3.20
2023-01-23T13:15:40.300Z,3.20
2023-01-23T13:19:12.466Z,3.20
2023-01-23T13:22:28.589Z,3.10
2023-01-23T13:25:38.192Z,3.10
2023-01-23T13:28:46.195Z,3.10
2023-01-23T13:31:52.635Z,3.10
2023-01-23T13:34:56.236Z,3.10
2023-01-23T13:38:00.277Z,3.10
2023-01-23T13:41:29.185Z,3.10
2023-01-23T13:44:42.322Z,3.10
2023-01-23T14:20:19.160Z,3.00
2023-01-23T14:23:29.890Z,3.00
2023-01-23T14:26:35.664Z,3.00
2023-01-23T14:29:38.954Z,2.90
2023-01-23T14:32:42.561Z,2.90
2023-01-23T14:35:47.973Z,2.90
2023-01-23T14:38:51.881Z,2.90
2023-01-23T14:41:59.063Z,2.90
2023-01-23T14:45:04.192Z,2.90
2023-01-23T14:48:08.951Z,2.80
2023-01-23T14:51:21.283Z,2.90
2023-01-23T14:54:26.389Z,2.80
2023-01-23T14:57:33.350Z,2.80
2023-01-23T15:00:37.490Z,2.80
2023-01-23T15:03:43.891Z,2.80
2023-01-23T15:06:52.411Z,2.90
2023-01-23T15:09:55.973Z,2.80
2023-01-23T15:13:02.380Z,2.80
2023-01-23T15:16:08.504Z,2.80
2023-01-23T15:19:21.695Z,2.80
2023-01-23T15:22:29.999Z,2.80
2023-01-23T15:25:34.673Z,2.70
2023-01-23T15:28:41.489Z,2.70
2023-01-23T15:31:47.827Z,2.70
2023-01-23T15:34:57.600Z,2.80
2023-01-23T15:38:05.401Z,2.80
2023-01-23T15:41:10.895Z,2.80
2023-01-23T15:44:16.291Z,2.80
2023-01-23T15:47:19.656Z,2.80
2023-01-23T15:50:23.240Z,2.80
2023-01-23T15:53:27.970Z,2.70
2023-01-23T15:56:33.374Z,2.80
2023-01-23T15:59:37.698Z,2.70
2023-01-23T16:02:54.365Z,2.80
2023-01-23T16:05:59.446Z,2.80
2023-01-23T16:09:05.980Z,2.80
2023-01-23T16:12:15.688Z,2.70
2023-01-23T16:15:21.532Z,2.70
2023-01-23T16:18:24.790Z,2.70
2023-01-23T16:21:31.413Z,2.70
2023-01-23T16:24:40.418Z,2.70
2023-01-23T16:27:44.626Z,2.70
2023-01-23T16:30:48.860Z,2.80
2023-01-23T16:33:52.402Z,2.70
2023-01-23T16:36:59.188Z,2.70
2023-01-23T16:40:04.707Z,2.70
2023-01-23T16:43:07.976Z,2.70
2023-01-23T16:46:12.302Z,2.70
2023-01-23T16:49:16.268Z,2.70
2023-01-23T16:52:19.628Z,2.70
2023-01-23T16:55:26.607Z,2.70
2023-01-23T16:58:32.990Z,2.70
2023-01-23T17:01:41.324Z,2.70
2023-01-23T17:04:44.635Z,2.70
2023-01-23T17:07:49.232Z,2.70
2023-01-23T17:10:58.780Z,2.70
2023-01-23T17:14:06.780Z,2.70
2023-01-23T17:17:15.377Z,2.70
2023-01-23T17:20:19.669Z,2.70
2023-01-23T17:23:23.061Z,2.70
2023-01-23T17:26:27.948Z,2.70
2023-01-23T17:29:31.614Z,2.70
2023-01-23T17:32:37.466Z,2.70
2023-01-23T17:35:40.864Z,2.70
2023-01-23T17:38:44.293Z,2.70
2023-01-23T17:41:51.417Z,2.70
2023-01-23T17:44:54.838Z,2.70
2023-01-23T17:47:58.340Z,2.70
2023-01-23T17:51:01.856Z,2.70
2023-01-23T17:54:05.800Z,2.60
2023-01-23T17:57:10.599Z,2.70
2023-01-23T18:00:15.891Z,2.70
2023-01-23T18:03:22.821Z,2.70
2023-01-23T18:06:27.984Z,2.70
2023-01-23T18:09:34.298Z,2.70
2023-01-23T18:12:45.904Z,2.70
2023-01-23T18:16:01.463Z,2.70
2023-01-23T18:19:17.387Z,2.70
2023-01-23T18:22:21.200Z,2.70
2023-01-23T18:25:26.341Z,2.70
2023-01-23T18:28:36.764Z,2.70
2023-01-23T18:31:44.030Z,2.70
2023-01-23T18:34:53.765Z,2.70
2023-01-23T18:38:04.452Z,2.70
2023-01-23T18:41:17.917Z,2.70
2023-01-23T18:44:29.838Z,2.70
2023-01-23T18:47:34.596Z,2.70
2023-01-23T18:50:40.872Z,2.70
2023-01-23T18:53:55.563Z,2.70
2023-01-23T18:57:10.206Z,2.60
2023-01-23T19:00:24.072Z,2.60
2023-01-23T19:03:36.263Z,2.70
2023-01-23T19:06:41.230Z,2.70
2023-01-23T19:09:46.617Z,2.70
2023-01-23T19:13:11.171Z,2.70
2023-01-23T19:16:29.462Z,2.70
2023-01-23T19:19:40.867Z,2.70
2023-01-23T19:22:53.413Z,2.70
2023-01-23T19:25:57.164Z,2.70
2023-01-23T19:29:19.270Z,2.70
2023-01-23T19:32:26.195Z,2.70
2023-01-23T19:35:29.757Z,2.60
2023-01-23T19:38:33.248Z,2.60
2023-01-23T19:41:41.529Z,2.60
2023-01-23T19:44:44.923Z,2.70
2023-01-23T19:47:50.640Z,2.60
2023-01-23T19:50:53.957Z,2.60
2023-01-23T19:53:57.513Z,2.60
2023-01-23T19:57:00.953Z,2.60
2023-01-23T20:00:05.017Z,2.60
2023-01-23T20:03:16.406Z,2.70
2023-01-23T20:06:20.133Z,2.60
2023-01-23T20:09:23.490Z,2.60
2023-01-23T20:12:26.887Z,2.60
2023-01-23T20:15:30.591Z,2.60
2023-01-23T20:18:35.717Z,2.70
2023-01-23T20:21:39.140Z,2.60
2023-01-23T20:24:42.603Z,2.60
2023-01-23T20:27:47.303Z,2.60
2023-01-23T20:30:53.934Z,2.50
2023-01-23T20:33:58.715Z,2.50
2023-01-23T20:37:02.171Z,2.60
2023-01-23T20:40:09.040Z,2.60
2023-01-23T20:43:12.371Z,2.60
2023-01-23T20:46:16.925Z,2.70
2023-01-23T20:49:23.454Z,2.60
2023-01-23T20:52:45.053Z,2.60
2023-01-23T20:55:56.004Z,2.60
2023-01-23T20:59:17.228Z,2.60
2023-01-23T21:02:29.288Z,2.60
2023-01-23T21:05:38.044Z,2.60
2023-01-23T21:08:41.969Z,2.60
2023-01-23T21:11:46.749Z,2.60
2023-01-23T21:14:50.127Z,2.60
2023-01-23T21:17:53.584Z,2.60
2023-01-23T21:21:05.373Z,2.60
2023-01-23T21:24:09.465Z,2.60
2023-01-23T21:27:13.864Z,2.60
2023-01-23T21:30:17.585Z,2.60
2023-01-23T21:33:21.212Z,2.60
2023-01-23T21:36:26.547Z,2.60
2023-01-23T21:39:30.060Z,2.60
2023-01-23T21:42:33.421Z,2.60
2023-01-23T21:45:37.057Z,2.60
2023-01-23T21:48:40.433Z,2.60
2023-01-23T21:51:45.874Z,2.60
2023-01-23T21:54:49.084Z,2.60
2023-01-23T21:57:52.424Z,2.60
2023-01-23T22:01:16.008Z,2.60
2023-01-23T22:04:22.460Z,2.60
2023-01-23T22:07:27.212Z,2.60
2023-01-23T22:10:30.584Z,2.60
2023-01-23T22:13:34.390Z,2.60
2023-01-23T22:16:48.346Z,2.60
2023-01-23T22:19:53.029Z,2.60
2023-01-23T22:22:57.906Z,2.60
2023-01-23T22:26:02.916Z,2.60
2023-01-23T22:29:06.147Z,2.60
2023-01-23T22:32:09.461Z,2.60
2023-01-23T22:35:12.933Z,2.60
2023-01-23T22:38:18.040Z,2.70
2023-01-23T22:41:21.781Z,2.70
2023-01-23T22:44:25.331Z,2.70
2023-01-23T22:47:29.135Z,2.60
2023-01-23T22:50:32.577Z,2.60
2023-01-23T22:53:37.320Z,2.60
2023-01-23T22:56:40.622Z,2.60
2023-01-23T22:59:43.873Z,2.60
2023-01-23T23:02:47.188Z,2.60
2023-01-23T23:05:58.034Z,2.70
2023-01-23T23:09:02.814Z,2.60
2023-01-23T23:12:06.320Z,2.70
2023-01-23T23:15:10.696Z,2.60
2023-01-23T23:18:14.021Z,2.70
2023-01-23T23:21:21.248Z,2.60
2023-01-23T23:24:26.110Z,2.60
2023-01-23T23:27:29.476Z,2.70
2023-01-23T23:30:32.819Z,2.70
2023-01-23T23:33:36.483Z,2.60
2023-01-23T23:36:39.852Z,2.60
2023-01-23T23:39:44.468Z,2.70
2023-01-23T23:42:47.878Z,2.70
2023-01-23T23:45:53.016Z,2.70
2023-01-23T23:48:56.560Z,2.70
2023-01-23T23:51:59.840Z,2.70
2023-01-23T23:55:04.727Z,2.70
2023-01-23T23:58:08.011Z,2.70
